Terminal Aerodrome Forecast
Issued by NWS Charleston, SC

Home | Current Version | Previous Version | Text Only | Print | Product List | Glossary On
Versions: 1 2 3 4 5 6 7 8 9 10 11 12 13 14 15 16
470
FTUS42 KCHS 281838 AAA
TAFCHS
TAF AMD
KCHS 281838Z 2819/2918 04010KT P6SM -TSRA SCT030CB BKN100
      TEMPO 2819/2820 6SM -SHRA BKN035
     FM282000 09010KT P6SM SCT040
     FM290200 05003KT P6SM FEW025
     FM291530 06009KT P6SM SCT035=

USA.gov is the U.S. government's official web portal to all federal, state and local government web resources and services.